Time;durP1;ratioP1;P1;durP2;ratioP2;P2;SDS_P1;SDS_P2;PMS_P1;PMS_P2;Temp;Humidity;BMP_temperature;BMP_pressure;BME280_temperature;BME280_humidity;BME280_pressure;Samples;Min_cycle;Max_cycle;Signal;HPM_P1;HPM_P2
2022/11/13 00:00:51;;;;;;;1999.90;999.90;;;4.40;99.90;;;;;;4956201;28;20814;-67
2022/11/13 00:03:16;;;;;;;1999.90;999.90;;;4.50;99.90;;;;;;4987957;28;20042;-67
2022/11/13 00:05:42;;;;;;;1999.90;999.90;;;4.50;99.90;;;;;;4974015;28;20505;-67
2022/11/13 00:08:08;;;;;;;1999.90;999.90;;;4.50;99.90;;;;;;4990657;28;20073;-66
2022/11/13 00:10:33;;;;;;;1999.90;999.90;;;4.40;99.90;;;;;;4982793;28;20053;-67
2022/11/13 00:12:59;;;;;;;1999.90;999.90;;;4.40;99.90;;;;;;4983612;28;20057;-66
2022/11/13 00:15:25;;;;;;;1999.90;999.90;;;4.50;99.90;;;;;;4989340;28;20048;-66
2022/11/13 00:17:51;;;;;;;1999.90;999.90;;;4.60;99.90;;;;;;5005775;28;20045;-67
2022/11/13 00:20:17;;;;;;;1999.90;999.90;;;4.60;99.90;;;;;;4987363;28;20498;-67
2022/11/13 00:22:43;;;;;;;1999.90;999.90;;;4.70;99.90;;;;;;4982214;28;20040;-67
2022/11/13 00:25:09;;;;;;;1999.90;999.90;;;4.80;99.90;;;;;;5005439;28;20046;-67
2022/11/13 00:27:34;;;;;;;1999.90;999.90;;;4.90;99.90;;;;;;4989586;28;20076;-67
2022/11/13 00:30:00;;;;;;;1999.90;999.90;;;4.90;99.90;;;;;;5006149;28;20045;-67
2022/11/13 00:32:26;;;;;;;1999.90;999.90;;;4.90;99.90;;;;;;5005122;28;20034;-67
2022/11/13 00:34:51;;;;;;;1999.90;999.90;;;4.80;99.90;;;;;;5004853;28;20065;-66
2022/11/13 00:37:17;;;;;;;1999.90;999.90;;;4.80;99.90;;;;;;5002755;28;20030;-67
2022/11/13 00:39:43;;;;;;;1999.90;999.90;;;4.80;99.90;;;;;;4997303;28;20089;-67
2022/11/13 00:42:08;;;;;;;1999.90;999.90;;;4.80;99.90;;;;;;4985792;28;20045;-67
2022/11/13 00:44:34;;;;;;;1999.90;999.90;;;4.70;99.90;;;;;;4972004;28;20049;-67
2022/11/13 00:46:59;;;;;;;1999.90;999.90;;;4.70;99.90;;;;;;4987484;28;20053;-67
2022/11/13 00:49:25;;;;;;;1999.90;999.90;;;4.70;99.90;;;;;;4982463;28;20042;-67
2022/11/13 00:51:51;;;;;;;1999.90;999.90;;;4.70;99.90;;;;;;4984910;28;20387;-66
2022/11/13 00:54:16;;;;;;;1999.90;999.90;;;4.80;99.90;;;;;;5003502;28;20061;-67
2022/11/13 00:56:42;;;;;;;1999.90;999.90;;;4.80;99.90;;;;;;4991229;28;20053;-67
2022/11/13 00:59:07;;;;;;;1999.90;999.90;;;4.90;99.90;;;;;;4969774;28;20045;-67
2022/11/13 01:01:33;;;;;;;1999.90;999.90;;;4.90;99.90;;;;;;4986872;28;20045;-67
2022/11/13 01:03:58;;;;;;;1999.90;999.90;;;4.90;99.90;;;;;;4982734;28;20037;-67
2022/11/13 01:06:26;;;;;;;1999.90;999.90;;;5.00;99.90;;;;;;4981208;28;20091;-67
2022/11/13 01:08:58;;;;;;;1999.90;999.90;;;5.10;99.90;;;;;;4970643;28;20042;-67
2022/11/13 01:11:26;;;;;;;1999.90;999.90;;;5.10;99.90;;;;;;4983502;28;20084;-67
2022/11/13 01:13:52;;;;;;;1999.90;999.90;;;5.30;99.90;;;;;;4990066;28;20464;-67
2022/11/13 01:16:21;;;;;;;1999.90;999.90;;;5.30;99.90;;;;;;4969235;28;20545;-67
2022/11/13 01:18:47;;;;;;;1999.90;999.90;;;5.40;99.90;;;;;;4987854;28;20046;-67
2022/11/13 01:21:22;;;;;;;1999.90;999.90;;;5.50;99.90;;;;;;4982017;28;20056;-67
2022/11/13 01:23:48;;;;;;;1999.90;999.90;;;5.60;99.90;;;;;;4996971;28;20041;-67
2022/11/13 01:26:15;;;;;;;1999.90;999.90;;;5.70;99.90;;;;;;4989911;28;20113;-67
2022/11/13 01:28:42;;;;;;;1999.90;999.90;;;5.80;99.90;;;;;;4983947;28;20415;-67
2022/11/13 01:31:11;;;;;;;1999.90;999.90;;;5.80;99.90;;;;;;4987695;28;20549;-66
2022/11/13 01:33:36;;;;;;;1999.90;999.90;;;5.90;99.90;;;;;;4985290;28;20506;-67
2022/11/13 01:36:09;;;;;;;1999.90;999.90;;;5.90;99.90;;;;;;4978590;28;20046;-67
2022/11/13 01:38:35;;;;;;;1999.90;999.90;;;6.00;99.90;;;;;;4984817;28;20046;-67
2022/11/13 01:41:01;;;;;;;1999.90;999.90;;;6.00;99.90;;;;;;5001267;28;20042;-67
2022/11/13 01:43:32;;;;;;;1999.90;999.90;;;6.10;99.90;;;;;;5005907;28;20109;-67
2022/11/13 01:45:58;;;;;;;1999.90;999.90;;;6.10;99.90;;;;;;4983184;28;20046;-67
2022/11/13 01:48:40;;;;;;;1999.90;999.90;;;6.10;99.90;;;;;;4987508;28;20057;-67
2022/11/13 01:51:12;;;;;;;1999.90;999.90;;;6.10;99.90;;;;;;4999753;28;20038;-67
2022/11/13 01:53:40;;;;;;;1999.90;999.90;;;6.20;99.90;;;;;;4999556;28;20081;-67
2022/11/13 01:56:06;;;;;;;1999.90;999.90;;;6.20;99.90;;;;;;4985531;28;20045;-67
2022/11/13 01:58:32;;;;;;;1999.90;999.90;;;6.20;99.90;;;;;;4953694;28;20045;-67
2022/11/13 02:00:58;;;;;;;1999.90;999.90;;;6.20;99.90;;;;;;4969408;28;20049;-67
2022/11/13 02:03:23;;;;;;;1999.90;999.90;;;6.20;99.90;;;;;;5002689;28;20041;-66
2022/11/13 02:05:50;;;;;;;1999.90;999.90;;;6.20;99.90;;;;;;4979604;28;20042;-67
2022/11/13 02:08:16;;;;;;;1999.90;999.90;;;6.30;99.90;;;;;;4980820;28;20046;-67
2022/11/13 02:10:42;;;;;;;1999.90;999.90;;;6.30;99.90;;;;;;4965789;28;20049;-67
2022/11/13 02:13:09;;;;;;;1999.90;999.90;;;6.30;99.90;;;;;;4983896;28;20137;-67
2022/11/13 02:15:35;;;;;;;1999.90;999.90;;;6.30;99.90;;;;;;4983233;28;20050;-67
2022/11/13 02:18:02;;;;;;;1999.90;999.90;;;6.30;99.90;;;;;;4976555;28;20046;-67
2022/11/13 02:20:52;;;;;;;1999.90;999.90;;;6.40;99.90;;;;;;4979578;28;20046;-67
2022/11/13 02:23:47;;;;;;;1999.90;999.90;;;6.40;99.90;;;;;;4983044;28;20057;-67
2022/11/13 02:26:14;;;;;;;1999.90;999.90;;;6.40;99.90;;;;;;4982979;28;20442;-67
2022/11/13 02:28:39;;;;;;;1999.90;999.90;;;6.40;99.90;;;;;;4969927;28;20045;-67
2022/11/13 02:31:09;;;;;;;1999.90;999.90;;;6.50;99.90;;;;;;4982606;28;20054;-66
2022/11/13 02:33:35;;;;;;;1999.90;999.90;;;6.40;99.90;;;;;;4987088;28;20077;-67
2022/11/13 02:36:01;;;;;;;1999.90;999.90;;;6.40;99.90;;;;;;4981318;28;20132;-67
2022/11/13 02:38:27;;;;;;;1999.90;999.90;;;6.40;99.90;;;;;;4982736;28;20065;-67
2022/11/13 02:40:52;;;;;;;1999.90;999.90;;;6.40;99.90;;;;;;4982975;28;20043;-67
2022/11/13 02:43:18;;;;;;;1999.90;999.90;;;6.40;99.90;;;;;;4981814;28;20507;-67
2022/11/13 02:45:43;;;;;;;1999.90;999.90;;;6.30;99.90;;;;;;4981221;28;20042;-67
2022/11/13 02:48:09;;;;;;;1999.90;999.90;;;6.30;99.90;;;;;;4969368;28;20126;-67
2022/11/13 02:50:36;;;;;;;1999.90;999.90;;;6.30;99.90;;;;;;4981142;28;20059;-67
2022/11/13 02:53:03;;;;;;;1999.90;999.90;;;6.30;99.90;;;;;;4986922;28;20054;-67
2022/11/13 02:55:29;;;;;;;1999.90;999.90;;;6.30;99.90;;;;;;4983167;28;20046;-67
2022/11/13 02:57:54;;;;;;;1999.90;999.90;;;6.30;99.90;;;;;;4983475;28;20042;-69
2022/11/13 03:00:20;;;;;;;1999.90;999.90;;;6.30;99.90;;;;;;4982618;28;20035;-67
2022/11/13 03:02:45;;;;;;;1999.90;999.90;;;6.20;99.90;;;;;;4983749;28;20034;-67
2022/11/13 03:05:11;;;;;;;1999.90;999.90;;;6.20;99.90;;;;;;4964480;28;20046;-67
2022/11/13 03:07:36;;;;;;;1999.90;999.90;;;6.20;99.90;;;;;;4991257;28;20105;-67
2022/11/13 03:10:03;;;;;;;1999.90;999.90;;;6.20;99.90;;;;;;4990249;28;20576;-67
2022/11/13 03:12:28;;;;;;;1999.90;999.90;;;6.20;99.90;;;;;;4998583;28;20054;-67
2022/11/13 03:14:54;;;;;;;1999.90;999.90;;;6.20;99.90;;;;;;4971698;28;20401;-67
2022/11/13 03:17:19;;;;;;;1999.90;999.90;;;6.10;99.90;;;;;;5005536;28;20125;-67
2022/11/13 03:19:45;;;;;;;1999.90;999.90;;;6.10;99.90;;;;;;4988897;28;20486;-67
2022/11/13 03:22:10;;;;;;;1999.90;999.90;;;6.10;99.90;;;;;;5002178;28;20048;-67
2022/11/13 03:24:36;;;;;;;1999.90;999.90;;;6.10;99.90;;;;;;5001834;28;20490;-67
2022/11/13 03:27:02;;;;;;;1999.90;999.90;;;6.10;99.90;;;;;;4983124;28;20041;-67
2022/11/13 03:29:27;;;;;;;1999.90;999.90;;;6.10;99.90;;;;;;5004950;28;20327;-67
2022/11/13 03:31:53;;;;;;;1999.90;999.90;;;6.10;99.90;;;;;;4988390;28;20148;-67
2022/11/13 03:34:18;;;;;;;1999.90;999.90;;;6.10;99.90;;;;;;4985206;28;20064;-67
2022/11/13 03:36:44;;;;;;;1999.90;999.90;;;6.10;99.90;;;;;;4985742;28;20054;-67
2022/11/13 03:39:09;;;;;;;1999.90;999.90;;;6.10;99.90;;;;;;4986198;28;20045;-67
2022/11/13 03:41:35;;;;;;;1999.90;999.90;;;6.00;99.90;;;;;;4986153;28;20042;-67
2022/11/13 03:44:00;;;;;;;1999.90;999.90;;;6.00;99.90;;;;;;4987493;28;20128;-67
2022/11/13 03:46:26;;;;;;;1999.90;999.90;;;6.00;99.90;;;;;;4981862;28;20046;-67
2022/11/13 03:48:51;;;;;;;1999.90;999.90;;;6.00;99.90;;;;;;4999534;28;20042;-67
2022/11/13 03:51:17;;;;;;;1999.90;999.90;;;6.00;99.90;;;;;;4985286;28;20045;-67
2022/11/13 03:53:43;;;;;;;1999.90;999.90;;;6.00;99.90;;;;;;4985426;28;20512;-67
2022/11/13 03:56:08;;;;;;;1999.90;999.90;;;6.00;99.90;;;;;;5001232;28;20044;-67
2022/11/13 03:58:34;;;;;;;1999.90;999.90;;;6.00;99.90;;;;;;5001488;28;20064;-67
2022/11/13 04:00:59;;;;;;;1999.90;999.90;;;6.00;99.90;;;;;;4991285;28;20054;-67
2022/11/13 04:03:25;;;;;;;1999.90;999.90;;;6.10;99.90;;;;;;4983731;28;20044;-67
2022/11/13 04:05:51;;;;;;;1999.90;999.90;;;6.10;99.90;;;;;;5006217;28;20051;-67
2022/11/13 04:08:17;;;;;;;1999.90;999.90;;;6.20;99.90;;;;;;4987633;28;20049;-67
2022/11/13 04:10:43;;;;;;;1999.90;999.90;;;6.20;99.90;;;;;;4988935;28;20525;-67
2022/11/13 04:13:09;;;;;;;1999.90;999.90;;;6.30;99.90;;;;;;4966750;28;20042;-67
2022/11/13 04:15:34;;;;;;;1999.90;999.90;;;6.30;99.90;;;;;;4988464;28;20048;-67
2022/11/13 04:18:00;;;;;;;1999.90;999.90;;;6.30;99.90;;;;;;4982660;28;20038;-67
2022/11/13 04:20:29;;;;;;;1999.90;999.90;;;6.40;99.90;;;;;;4982201;28;20146;-67
2022/11/13 04:22:56;;;;;;;1999.90;999.90;;;6.40;99.90;;;;;;4982609;28;20049;-67
2022/11/13 04:25:22;;;;;;;1999.90;999.90;;;6.40;99.90;;;;;;4995479;28;20040;-67
2022/11/13 04:27:52;;;;;;;1999.90;999.90;;;6.40;99.90;;;;;;4989378;28;20124;-67
2022/11/13 04:30:18;;;;;;;1999.90;999.90;;;6.40;99.90;;;;;;4983467;28;20080;-67
2022/11/13 04:32:44;;;;;;;1999.90;999.90;;;6.40;99.90;;;;;;4980723;28;20045;-67
2022/11/13 04:35:10;;;;;;;1999.90;999.90;;;6.40;99.90;;;;;;4999892;28;20038;-67
2022/11/13 04:37:35;;;;;;;1999.90;999.90;;;6.40;99.90;;;;;;4999611;28;20042;-67
2022/11/13 04:40:02;;;;;;;1999.90;999.90;;;6.40;99.90;;;;;;5001224;28;20517;-67
2022/11/13 04:45:11;;;;;;;1999.90;999.90;;;6.40;99.90;;;;;;4990912;28;20042;-67
2022/11/13 04:47:37;;;;;;;1999.90;999.90;;;6.40;99.90;;;;;;4983972;28;20683;-67
2022/11/13 04:50:03;;;;;;;1999.90;999.90;;;6.40;99.90;;;;;;5003001;28;20065;-67
2022/11/13 04:52:29;;;;;;;1999.90;999.90;;;6.40;99.90;;;;;;5003418;28;20057;-67
2022/11/13 04:54:56;;;;;;;1999.90;999.90;;;6.40;99.90;;;;;;4996061;28;20141;-67
2022/11/13 04:57:21;;;;;;;1999.90;999.90;;;6.40;99.90;;;;;;4966709;28;20053;-67
2022/11/13 04:59:47;;;;;;;1999.90;999.90;;;6.40;99.90;;;;;;4986833;28;20046;-67
2022/11/13 05:02:12;;;;;;;1999.90;999.90;;;6.30;99.90;;;;;;4983138;28;20100;-67
2022/11/13 05:04:38;;;;;;;1999.90;999.90;;;6.30;99.90;;;;;;4972798;28;20034;-67
2022/11/13 05:07:04;;;;;;;1999.90;999.90;;;6.20;99.90;;;;;;4979624;28;20046;-67
2022/11/13 05:09:29;;;;;;;1999.90;999.90;;;6.20;99.90;;;;;;4984761;28;20057;-67
2022/11/13 05:11:55;;;;;;;1999.90;999.90;;;6.20;99.90;;;;;;4995677;28;20132;-67
2022/11/13 05:14:20;;;;;;;1999.90;999.90;;;6.20;99.90;;;;;;4998432;28;20045;-67
2022/11/13 05:16:46;;;;;;;1999.90;999.90;;;6.10;99.90;;;;;;4986696;28;20049;-67
2022/11/13 05:19:11;;;;;;;1999.90;999.90;;;6.10;99.90;;;;;;4977712;28;20042;-67
2022/11/13 05:21:38;;;;;;;1999.90;999.90;;;6.10;99.90;;;;;;4972905;28;20042;-67
2022/11/13 05:24:04;;;;;;;1999.90;999.90;;;6.10;99.90;;;;;;4988259;28;20072;-67
2022/11/13 05:26:30;;;;;;;1999.90;999.90;;;6.10;99.90;;;;;;4981741;28;20034;-67
2022/11/13 05:28:57;;;;;;;1999.90;999.90;;;6.10;99.90;;;;;;4998040;28;20030;-67
2022/11/13 05:31:23;;;;;;;1999.90;999.90;;;6.10;99.90;;;;;;4984259;28;20111;-67
2022/11/13 05:33:49;;;;;;;1999.90;999.90;;;6.00;99.90;;;;;;4971271;28;20050;-67
2022/11/13 05:36:16;;;;;;;1999.90;999.90;;;6.00;99.90;;;;;;5002880;28;20482;-67
2022/11/13 05:38:42;;;;;;;1999.90;999.90;;;6.00;99.90;;;;;;4984276;28;20092;-67
2022/11/13 05:41:11;;;;;;;1999.90;999.90;;;5.90;99.90;;;;;;4988206;28;20058;-67
2022/11/13 05:43:38;;;;;;;1999.90;999.90;;;5.90;99.90;;;;;;4979127;28;20050;-67
2022/11/13 05:46:18;;;;;;;1999.90;999.90;;;5.90;99.90;;;;;;4993684;28;20449;-67
2022/11/13 05:48:45;;;;;;;1999.90;999.90;;;5.90;99.90;;;;;;4985043;28;20069;-67
2022/11/13 05:51:16;;;;;;;1999.90;999.90;;;5.90;99.90;;;;;;4994709;28;20057;-67
2022/11/13 05:53:42;;;;;;;1999.90;999.90;;;5.80;99.90;;;;;;4983522;28;20038;-67
2022/11/13 05:56:17;;;;;;;1999.90;999.90;;;5.80;99.90;;;;;;4996357;28;20459;-67
2022/11/13 05:58:44;;;;;;;1999.90;999.90;;;5.80;99.90;;;;;;5002808;28;20041;-67
2022/11/13 06:01:14;;;;;;;1999.90;999.90;;;5.80;99.90;;;;;;4988764;28;20459;-67
2022/11/13 06:03:40;;;;;;;1999.90;999.90;;;5.80;99.90;;;;;;5004096;28;20038;-67
2022/11/13 06:06:08;;;;;;;1999.90;999.90;;;5.70;99.90;;;;;;4990340;28;20060;-67
2022/11/13 06:08:33;;;;;;;1999.90;999.90;;;5.70;99.90;;;;;;5005052;28;20689;-67
2022/11/13 06:11:05;;;;;;;1999.90;999.90;;;5.60;99.90;;;;;;4987104;28;20068;-67
2022/11/13 06:13:31;;;;;;;1999.90;999.90;;;5.60;99.90;;;;;;4959535;28;20045;-67
2022/11/13 06:16:12;;;;;;;1999.90;999.90;;;5.60;99.90;;;;;;4985259;28;20042;-67
2022/11/13 06:18:38;;;;;;;1999.90;999.90;;;5.60;99.90;;;;;;5008779;28;20378;-67
2022/11/13 06:21:07;;;;;;;1999.90;999.90;;;5.50;99.90;;;;;;4986706;28;20041;-67
2022/11/13 06:23:34;;;;;;;1999.90;999.90;;;5.50;99.90;;;;;;5007182;28;20064;-67
2022/11/13 06:26:06;;;;;;;1999.90;999.90;;;5.40;99.90;;;;;;5006296;28;20038;-67
2022/11/13 06:28:33;;;;;;;1999.90;999.90;;;5.40;99.90;;;;;;4985540;28;20057;-67
2022/11/13 06:31:03;;;;;;;1999.90;999.90;;;5.40;99.90;;;;;;5002509;28;20064;-67
2022/11/13 06:33:29;;;;;;;1999.90;999.90;;;5.30;99.90;;;;;;4985924;28;20092;-67
2022/11/13 06:35:55;;;;;;;1999.90;999.90;;;5.30;99.90;;;;;;4988198;28;20042;-67
2022/11/13 06:38:20;;;;;;;1999.90;999.90;;;5.30;99.90;;;;;;5003856;28;20038;-67
2022/11/13 06:40:46;;;;;;;1999.90;999.90;;;5.30;99.90;;;;;;4991129;28;20078;-67
2022/11/13 06:43:11;;;;;;;1999.90;999.90;;;5.30;99.90;;;;;;5005279;28;20064;-67
2022/11/13 06:45:37;;;;;;;1999.90;999.90;;;5.30;99.90;;;;;;5006185;28;20038;-67
2022/11/13 06:48:03;;;;;;;1999.90;999.90;;;5.30;99.90;;;;;;4976042;28;20045;-67
2022/11/13 06:50:28;;;;;;;1999.90;999.90;;;5.30;99.90;;;;;;5005474;28;20052;-67
2022/11/13 06:52:54;;;;;;;1999.90;999.90;;;5.20;99.90;;;;;;5003659;28;20048;-67
2022/11/13 06:55:19;;;;;;;1999.90;999.90;;;5.20;99.90;;;;;;4982106;28;20041;-67
2022/11/13 06:57:45;;;;;;;1999.90;999.90;;;5.20;99.90;;;;;;5004128;28;20529;-67
2022/11/13 07:00:11;;;;;;;1999.90;999.90;;;5.20;99.90;;;;;;5001546;28;20508;-67
2022/11/13 07:02:37;;;;;;;1999.90;999.90;;;5.10;99.90;;;;;;4966443;28;20047;-67
2022/11/13 07:05:02;;;;;;;1999.90;999.90;;;5.10;99.90;;;;;;4986323;28;20042;-67
2022/11/13 07:07:28;;;;;;;1999.90;999.90;;;5.20;99.90;;;;;;4972344;28;20120;-67
2022/11/13 07:09:54;;;;;;;1999.90;999.90;;;5.10;99.90;;;;;;4984423;28;20099;-67
2022/11/13 07:12:19;;;;;;;1999.90;999.90;;;5.10;99.90;;;;;;4999626;28;20045;-67
2022/11/13 07:14:45;;;;;;;1999.90;999.90;;;5.10;99.90;;;;;;5001270;28;20041;-67
2022/11/13 07:17:10;;;;;;;1999.90;999.90;;;5.10;99.90;;;;;;5004320;28;20870;-67
2022/11/13 07:19:36;;;;;;;1999.90;999.90;;;5.10;99.90;;;;;;4969799;28;20616;-67
2022/11/13 07:22:01;;;;;;;1999.90;999.90;;;5.10;99.90;;;;;;5000859;28;20482;-67
2022/11/13 07:24:27;;;;;;;1999.90;999.90;;;5.00;99.90;;;;;;4986949;28;20584;-67
2022/11/13 07:26:52;;;;;;;1999.90;999.90;;;5.00;99.90;;;;;;4968153;28;20041;-67
2022/11/13 07:29:18;;;;;;;1999.90;999.90;;;5.00;99.90;;;;;;4983023;28;20042;-67
2022/11/13 07:31:44;;;;;;;1999.90;999.90;;;5.00;99.90;;;;;;5003505;28;20080;-66
2022/11/13 07:34:09;;;;;;;1999.90;999.90;;;5.00;99.90;;;;;;4996618;28;20062;-66
2022/11/13 07:36:35;;;;;;;1999.90;999.90;;;5.00;99.90;;;;;;5000049;28;20108;-67
2022/11/13 07:39:00;;;;;;;1999.90;999.90;;;5.10;99.90;;;;;;4972788;28;20035;-67
2022/11/13 07:41:26;;;;;;;1999.90;999.90;;;5.10;99.90;;;;;;5003255;28;20057;-67
2022/11/13 07:43:51;;;;;;;1999.90;999.90;;;5.20;99.90;;;;;;4983728;28;20067;-67
2022/11/13 07:46:17;;;;;;;1999.90;999.90;;;5.20;99.90;;;;;;4985922;28;20065;-67
2022/11/13 07:48:42;;;;;;;1999.90;999.90;;;5.30;99.90;;;;;;4985759;28;20478;-67
2022/11/13 07:51:08;;;;;;;1999.90;999.90;;;5.30;99.90;;;;;;5001770;28;20038;-67
2022/11/13 07:53:34;;;;;;;1999.90;999.90;;;5.40;99.90;;;;;;5002503;28;20061;-67
2022/11/13 07:56:01;;;;;;;1999.90;999.90;;;5.40;99.90;;;;;;4985916;28;20772;-67
2022/11/13 07:58:27;;;;;;;1999.90;999.90;;;5.50;99.90;;;;;;4983636;28;20049;-67
2022/11/13 08:00:52;;;;;;;1999.90;999.90;;;5.60;99.90;;;;;;4986006;28;20041;-67
2022/11/13 08:03:18;;;;;;;1999.90;999.90;;;5.60;99.90;;;;;;4971782;28;20421;-67
2022/11/13 08:05:44;;;;;;;1999.90;999.90;;;5.70;99.90;;;;;;5001350;28;20052;-68
2022/11/13 08:08:13;;;;;;;1999.90;999.90;;;6.00;99.90;;;;;;4972399;28;20050;-67
2022/11/13 08:10:39;;;;;;;1999.90;999.90;;;6.40;99.90;;;;;;4986932;28;20042;-67
2022/11/13 08:13:09;;;;;;;1999.90;999.90;;;6.80;99.90;;;;;;5001418;28;20045;-67
2022/11/13 08:15:34;;;;;;;1999.90;999.90;;;7.20;99.90;;;;;;4986739;28;20500;-67
2022/11/13 08:18:02;;;;;;;1999.90;999.90;;;7.50;99.90;;;;;;5003621;28;20133;-67
2022/11/13 08:20:29;;;;;;;1999.90;999.90;;;7.90;99.90;;;;;;4984483;28;20054;-67
2022/11/13 08:22:59;;;;;;;1999.90;999.90;;;8.40;99.90;;;;;;4990633;28;20108;-67
2022/11/13 08:25:25;;;;;;;1999.90;999.90;;;8.60;99.90;;;;;;4981496;28;20490;-67
2022/11/13 08:27:52;;;;;;;1999.90;999.90;;;8.60;99.90;;;;;;4985139;28;20431;-67
2022/11/13 08:30:19;;;;;;;1999.90;999.90;;;8.90;99.90;;;;;;4982283;28;20042;-67
2022/11/13 08:32:46;;;;;;;1999.90;999.90;;;9.40;99.90;;;;;;5003029;28;20041;-67
2022/11/13 08:35:11;;;;;;;1999.90;999.90;;;9.80;99.90;;;;;;4982929;28;20069;-67
2022/11/13 08:37:37;;;;;;;1999.90;999.90;;;9.80;99.90;;;;;;4989771;28;20139;-67
2022/11/13 08:40:03;;;;;;;1999.90;999.90;;;10.10;99.90;;;;;;4985320;28;20042;-67
2022/11/13 08:42:29;;;;;;;1999.90;999.90;;;10.50;99.90;;;;;;4970504;28;20054;-67
2022/11/13 08:44:54;;;;;;;1999.90;999.90;;;10.80;99.90;;;;;;4966983;28;20068;-67
2022/11/13 08:47:20;;;;;;;1999.90;999.90;;;11.00;99.90;;;;;;4982404;28;20045;-67
2022/11/13 08:49:45;;;;;;;1999.90;999.90;;;11.30;99.90;;;;;;4975731;28;20035;-67
2022/11/13 08:52:11;;;;;;;1999.90;999.90;;;11.40;99.90;;;;;;4984287;28;20038;-67
2022/11/13 08:54:37;;;;;;;1999.90;999.90;;;11.60;99.90;;;;;;4989383;28;20042;-67
2022/11/13 08:57:02;;;;;;;1999.90;999.90;;;11.90;99.90;;;;;;5002191;28;20045;-67
2022/11/13 08:59:28;;;;;;;1999.90;999.90;;;12.10;99.90;;;;;;4984370;28;20172;-67
2022/11/13 09:01:58;;;;;;;1999.90;999.90;;;12.30;99.90;;;;;;4969838;28;20088;-67
2022/11/13 09:04:27;;;;;;;1999.90;999.90;;;12.50;99.90;;;;;;4984758;28;20045;-68
2022/11/13 09:06:52;;;;;;;1999.90;999.90;;;12.50;99.90;;;;;;4987649;28;20401;-68
2022/11/13 09:09:19;;;;;;;1999.90;999.90;;;12.60;99.90;;;;;;4968226;28;20049;-67
2022/11/13 09:11:45;;;;;;;1999.90;999.90;;;12.60;99.90;;;;;;4968527;28;20041;-68
2022/11/13 09:14:10;;;;;;;1999.90;999.90;;;12.80;99.90;;;;;;4981768;28;20048;-67
2022/11/13 09:16:36;;;;;;;1999.90;999.90;;;12.70;99.90;;;;;;4999217;28;20046;-67
2022/11/13 09:19:02;;;;;;;1999.90;999.90;;;12.70;99.90;;;;;;4998962;28;20061;-67
2022/11/13 09:21:28;;;;;;;1999.90;999.90;;;12.60;99.90;;;;;;4990935;28;20129;-68
2022/11/13 09:23:54;;;;;;;1999.90;999.90;;;12.50;99.90;;;;;;4967009;28;20644;-68
2022/11/13 09:26:19;;;;;;;1999.90;999.90;;;12.50;99.90;;;;;;4971540;28;20037;-67
2022/11/13 09:28:45;;;;;;;1999.90;999.90;;;12.50;99.90;;;;;;4999432;28;20176;-67
2022/11/13 09:31:10;;;;;;;1999.90;999.90;;;12.30;99.90;;;;;;4999192;28;20050;-68
2022/11/13 09:33:36;;;;;;;1999.90;999.90;;;12.30;99.90;;;;;;4979403;28;20066;-68
2022/11/13 09:36:08;;;;;;;1999.90;999.90;;;12.40;99.90;;;;;;4968115;28;20414;-67
2022/11/13 09:38:33;;;;;;;1999.90;999.90;;;12.40;99.90;;;;;;4978096;28;20041;-67
2022/11/13 09:41:16;;;;;;;1999.90;999.90;;;12.40;99.90;;;;;;4984806;28;20034;-67
2022/11/13 09:43:58;;;;;;;1999.90;999.90;;;12.40;99.90;;;;;;4978194;28;20049;-68
2022/11/13 09:46:42;;;;;;;1999.90;999.90;;;12.40;99.90;;;;;;4982348;28;20477;-68
2022/11/13 09:49:18;;;;;;;1999.90;999.90;;;12.50;99.90;;;;;;5004169;28;20796;-68
2022/11/13 09:51:50;;;;;;;1999.90;999.90;;;12.40;99.90;;;;;;4983136;28;20038;-67
2022/11/13 09:54:17;;;;;;;1999.90;999.90;;;12.40;99.90;;;;;;4971462;28;20057;-68
2022/11/13 09:56:50;;;;;;;1999.90;999.90;;;12.50;99.90;;;;;;4985325;28;20480;-68
2022/11/13 09:59:50;;;;;;;1999.90;999.90;;;12.50;99.90;;;;;;4983335;28;20108;-67
2022/11/13 10:02:32;;;;;;;1999.90;999.90;;;12.60;99.90;;;;;;5005270;28;20041;-68
2022/11/13 10:05:25;;;;;;;1999.90;999.90;;;12.70;99.90;;;;;;4981039;28;20049;-68
2022/11/13 10:07:53;;;;;;;;;;;12.80;99.90;;;;;;4971618;28;20422;-68
2022/11/13 10:10:57;;;;;;;1999.90;999.90;;;12.90;99.90;;;;;;4985665;28;19964;-68
2022/11/13 10:13:49;;;;;;;1999.90;999.90;;;13.00;99.90;;;;;;4984065;28;20038;-68
2022/11/13 10:16:32;;;;;;;1999.90;999.90;;;13.20;99.90;;;;;;4996963;28;20039;-68
2022/11/13 10:19:13;;;;;;;1999.90;999.90;;;13.20;99.90;;;;;;4982705;28;20042;-68
2022/11/13 10:21:49;;;;;;;1999.90;999.90;;;13.30;99.90;;;;;;5005523;28;20041;-68
2022/11/13 10:24:38;;;;;;;1999.90;999.90;;;13.40;99.90;;;;;;5002016;28;20520;-68
2022/11/13 10:27:08;;;;;;;1999.90;999.90;;;13.60;99.90;;;;;;4990139;28;20405;-68
2022/11/13 10:29:34;;;;;;;1999.90;999.90;;;13.70;99.90;;;;;;5004338;28;20049;-68
2022/11/13 10:32:25;;;;;;;1999.90;999.90;;;13.90;99.90;;;;;;4986731;28;20046;-68
2022/11/13 10:35:00;;;;;;;1999.90;999.90;;;13.90;99.90;;;;;;5001448;28;20041;-68
2022/11/13 10:37:54;;;;;;;1999.90;999.90;;;14.00;99.90;;;;;;4990698;28;20096;-68
2022/11/13 10:40:31;;;;;;;1999.90;999.90;;;14.10;99.90;;;;;;4983355;28;20406;-68
2022/11/13 10:43:24;;;;;;;1999.90;999.90;;;14.10;99.90;;;;;;5003150;28;20347;-68
2022/11/13 10:45:59;;;;;;;1999.90;999.90;;;14.30;99.90;;;;;;4984767;28;20046;-68
2022/11/13 10:48:30;;;;;;;1999.90;999.90;;;14.60;99.90;;;;;;5005177;28;20053;-68
2022/11/13 10:51:19;;;;;;;1999.90;999.90;;;14.70;99.90;;;;;;4990406;28;20496;-68
2022/11/13 10:53:45;;;;;;;1999.90;999.90;;;14.80;99.90;;;;;;4978274;28;20054;-68
2022/11/13 10:56:21;;;;;;;1999.90;999.90;;;14.90;99.90;;;;;;4990919;28;20121;-68
2022/11/13 10:59:08;;;;;;;1999.90;999.90;;;14.90;99.90;;;;;;4989873;28;20169;-68
2022/11/13 11:01:34;;;;;;;1999.90;999.90;;;14.90;99.90;;;;;;5009048;28;20042;-68
2022/11/13 11:04:05;;;;;;;1999.90;999.90;;;14.80;99.90;;;;;;5008618;28;20116;-68
2022/11/13 11:06:37;;;;;;;1999.90;999.90;;;14.70;99.90;;;;;;4991447;28;20084;-68
2022/11/13 11:09:18;;;;;;;1999.90;999.90;;;14.60;99.90;;;;;;4986701;28;20061;-68
2022/11/13 11:12:19;;;;;;;1999.90;999.90;;;14.70;99.90;;;;;;4982156;28;20049;-68
2022/11/13 11:14:57;;;;;;;1999.90;999.90;;;14.80;99.90;;;;;;4990233;28;20128;-67
2022/11/13 11:17:31;;;;;;;1999.90;999.90;;;14.70;99.90;;;;;;4992419;28;20541;-67
2022/11/13 11:20:28;;;;;;;1999.90;999.90;;;14.70;99.90;;;;;;4972208;28;20049;-68
2022/11/13 11:23:32;;;;;;;1999.90;999.90;;;14.60;99.90;;;;;;4984858;28;20082;-68
2022/11/13 11:26:10;;;;;;;1999.90;999.90;;;14.50;99.90;;;;;;4987332;28;20099;-68
2022/11/13 11:28:55;;;;;;;1999.90;999.90;;;14.20;99.90;;;;;;4993664;28;20041;-68
2022/11/13 11:31:29;;;;;;;1999.90;999.90;;;14.10;99.90;;;;;;4993085;28;20037;-67
2022/11/13 11:34:16;;;;;;;1999.90;999.90;;;14.10;99.90;;;;;;4991322;28;20552;-68
2022/11/13 11:37:06;;;;;;;1999.90;999.90;;;14.30;99.90;;;;;;4981173;28;20137;-68
2022/11/13 11:39:54;;;;;;;1999.90;999.90;;;14.50;99.90;;;;;;4974836;28;20398;-68
2022/11/13 11:42:28;;;;;;;1999.90;999.90;;;14.70;99.90;;;;;;5000030;28;20046;-68
2022/11/13 11:45:13;;;;;;;1999.90;999.90;;;14.70;99.90;;;;;;4987112;28;20049;-68
2022/11/13 11:47:39;;;;;;;1999.90;999.90;;;14.70;99.90;;;;;;5008653;28;20048;-68
2022/11/13 11:50:13;;;;;;;1999.90;999.90;;;14.80;99.90;;;;;;4988860;28;20626;-68
2022/11/13 11:53:03;;;;;;;1999.90;999.90;;;14.80;99.90;;;;;;4988374;28;20097;-68
2022/11/13 11:55:43;;;;;;;1999.90;999.90;;;14.90;99.90;;;;;;4980965;28;21094;-68
2022/11/13 11:58:17;;;;;;;1999.90;999.90;;;14.90;99.90;;;;;;4989829;28;20061;-68
2022/11/13 12:00:52;;;;;;;1999.90;999.90;;;15.00;99.90;;;;;;4984779;28;20047;-68
2022/11/13 12:03:31;;;;;;;1999.90;999.90;;;15.10;99.90;;;;;;4982436;28;20046;-68
2022/11/13 12:06:14;;;;;;;1999.90;999.90;;;15.20;99.90;;;;;;4986809;28;20041;-68
2022/11/13 12:08:50;;;;;;;1999.90;999.90;;;15.40;99.90;;;;;;4982845;28;20065;-67
2022/11/13 12:11:27;;;;;;;1999.90;999.90;;;15.50;99.90;;;;;;4989073;28;20053;-67
2022/11/13 12:14:04;;;;;;;1999.90;999.90;;;15.50;99.90;;;;;;4990467;28;20125;-68
2022/11/13 12:16:50;;;;;;;1999.90;999.90;;;15.50;99.90;;;;;;4985932;28;20083;-68
2022/11/13 12:19:16;;;;;;;1999.90;999.90;;;15.30;99.90;;;;;;4983062;28;20137;-67